sensor_id;sensor_type;location;lat;lon;timestamp;P1;durP1;ratioP1;P2;durP2;ratioP2
50900;SDS011;36879;51.416;6.678;2023-04-06T00:00:12;29.27;;;15.30;;
50900;SDS011;36879;51.416;6.678;2023-04-06T00:02:39;30.05;;;13.85;;
50900;SDS011;36879;51.416;6.678;2023-04-06T00:05:05;31.58;;;13.70;;
50900;SDS011;36879;51.416;6.678;2023-04-06T00:07:33;30.42;;;15.80;;
50900;SDS011;36879;51.416;6.678;2023-04-06T00:09:59;24.55;;;12.85;;
50900;SDS011;36879;51.416;6.678;2023-04-06T00:12:25;27.45;;;13.48;;
50900;SDS011;36879;51.416;6.678;2023-04-06T00:14:51;25.60;;;12.85;;
50900;SDS011;36879;51.416;6.678;2023-04-06T00:17:17;26.92;;;13.80;;
50900;SDS011;36879;51.416;6.678;2023-04-06T00:19:43;24.95;;;12.73;;
50900;SDS011;36879;51.416;6.678;2023-04-06T00:22:09;25.65;;;12.82;;
50900;SDS011;36879;51.416;6.678;2023-04-06T00:24:35;23.08;;;11.98;;
50900;SDS011;36879;51.416;6.678;2023-04-06T00:27:01;25.67;;;13.30;;
50900;SDS011;36879;51.416;6.678;2023-04-06T00:29:27;23.25;;;11.82;;
50900;SDS011;36879;51.416;6.678;2023-04-06T00:31:53;21.23;;;12.20;;
50900;SDS011;36879;51.416;6.678;2023-04-06T00:34:19;21.13;;;11.65;;
50900;SDS011;36879;51.416;6.678;2023-04-06T00:36:45;25.92;;;12.70;;
50900;SDS011;36879;51.416;6.678;2023-04-06T00:39:11;25.00;;;12.43;;
50900;SDS011;36879;51.416;6.678;2023-04-06T00:41:38;23.67;;;13.10;;
50900;SDS011;36879;51.416;6.678;2023-04-06T00:44:04;27.38;;;11.73;;
50900;SDS011;36879;51.416;6.678;2023-04-06T00:46:30;24.05;;;11.80;;
50900;SDS011;36879;51.416;6.678;2023-04-06T00:48:56;21.80;;;10.98;;
50900;SDS011;36879;51.416;6.678;2023-04-06T00:51:22;21.23;;;11.63;;
50900;SDS011;36879;51.416;6.678;2023-04-06T00:53:48;20.25;;;11.50;;
50900;SDS011;36879;51.416;6.678;2023-04-06T00:56:14;21.70;;;11.85;;
50900;SDS011;36879;51.416;6.678;2023-04-06T00:58:40;24.77;;;12.70;;
50900;SDS011;36879;51.416;6.678;2023-04-06T01:01:06;19.40;;;11.57;;
50900;SDS011;36879;51.416;6.678;2023-04-06T01:03:32;25.30;;;12.55;;
50900;SDS011;36879;51.416;6.678;2023-04-06T01:05:58;22.60;;;11.63;;
50900;SDS011;36879;51.416;6.678;2023-04-06T01:08:24;23.80;;;12.50;;
50900;SDS011;36879;51.416;6.678;2023-04-06T01:10:51;24.88;;;11.82;;
50900;SDS011;36879;51.416;6.678;2023-04-06T01:13:16;26.58;;;12.07;;
50900;SDS011;36879;51.416;6.678;2023-04-06T01:15:43;33.42;;;12.50;;
50900;SDS011;36879;51.416;6.678;2023-04-06T01:18:09;24.48;;;12.02;;
50900;SDS011;36879;51.416;6.678;2023-04-06T01:20:37;24.27;;;12.75;;
50900;SDS011;36879;51.416;6.678;2023-04-06T01:23:03;21.75;;;12.88;;
50900;SDS011;36879;51.416;6.678;2023-04-06T01:25:29;23.27;;;12.20;;
50900;SDS011;36879;51.416;6.678;2023-04-06T01:27:55;23.27;;;11.90;;
50900;SDS011;36879;51.416;6.678;2023-04-06T01:30:21;26.65;;;12.10;;
50900;SDS011;36879;51.416;6.678;2023-04-06T01:32:47;26.50;;;12.88;;
50900;SDS011;36879;51.416;6.678;2023-04-06T01:35:13;27.98;;;13.57;;
50900;SDS011;36879;51.416;6.678;2023-04-06T01:37:39;24.48;;;12.77;;
50900;SDS011;36879;51.416;6.678;2023-04-06T01:40:06;28.35;;;13.13;;
50900;SDS011;36879;51.416;6.678;2023-04-06T01:42:32;24.73;;;13.95;;
50900;SDS011;36879;51.416;6.678;2023-04-06T01:44:58;22.35;;;12.57;;
50900;SDS011;36879;51.416;6.678;2023-04-06T01:47:24;27.17;;;12.93;;
50900;SDS011;36879;51.416;6.678;2023-04-06T01:49:50;21.00;;;12.20;;
50900;SDS011;36879;51.416;6.678;2023-04-06T01:52:16;26.23;;;13.20;;
50900;SDS011;36879;51.416;6.678;2023-04-06T01:54:42;24.63;;;12.90;;
50900;SDS011;36879;51.416;6.678;2023-04-06T01:57:08;18.77;;;11.10;;
50900;SDS011;36879;51.416;6.678;2023-04-06T01:59:34;21.88;;;11.68;;
50900;SDS011;36879;51.416;6.678;2023-04-06T02:02:00;23.17;;;12.15;;
50900;SDS011;36879;51.416;6.678;2023-04-06T02:04:26;28.55;;;13.90;;
50900;SDS011;36879;51.416;6.678;2023-04-06T02:06:52;23.63;;;12.55;;
50900;SDS011;36879;51.416;6.678;2023-04-06T02:09:18;28.15;;;12.55;;
50900;SDS011;36879;51.416;6.678;2023-04-06T02:11:44;21.65;;;11.63;;
50900;SDS011;36879;51.416;6.678;2023-04-06T02:14:10;25.05;;;12.93;;
50900;SDS011;36879;51.416;6.678;2023-04-06T02:16:36;26.55;;;11.75;;
50900;SDS011;36879;51.416;6.678;2023-04-06T02:19:02;24.00;;;13.48;;
50900;SDS011;36879;51.416;6.678;2023-04-06T02:21:28;21.25;;;12.68;;
50900;SDS011;36879;51.416;6.678;2023-04-06T02:23:54;22.23;;;12.70;;
50900;SDS011;36879;51.416;6.678;2023-04-06T02:26:20;25.50;;;13.73;;
50900;SDS011;36879;51.416;6.678;2023-04-06T02:28:46;23.13;;;13.40;;
50900;SDS011;36879;51.416;6.678;2023-04-06T02:31:12;20.88;;;11.70;;
50900;SDS011;36879;51.416;6.678;2023-04-06T02:33:39;26.10;;;12.63;;
50900;SDS011;36879;51.416;6.678;2023-04-06T02:36:06;22.95;;;12.50;;
50900;SDS011;36879;51.416;6.678;2023-04-06T02:38:32;23.42;;;12.27;;
50900;SDS011;36879;51.416;6.678;2023-04-06T02:40:58;22.55;;;12.45;;
50900;SDS011;36879;51.416;6.678;2023-04-06T02:43:24;22.08;;;12.50;;
50900;SDS011;36879;51.416;6.678;2023-04-06T02:45:50;30.02;;;12.98;;
50900;SDS011;36879;51.416;6.678;2023-04-06T02:48:16;22.25;;;12.98;;
50900;SDS011;36879;51.416;6.678;2023-04-06T02:50:41;22.15;;;11.63;;
50900;SDS011;36879;51.416;6.678;2023-04-06T02:53:07;22.92;;;12.43;;
50900;SDS011;36879;51.416;6.678;2023-04-06T02:55:33;23.23;;;11.75;;
50900;SDS011;36879;51.416;6.678;2023-04-06T02:57:59;18.77;;;11.57;;
50900;SDS011;36879;51.416;6.678;2023-04-06T03:00:25;22.38;;;11.63;;
50900;SDS011;36879;51.416;6.678;2023-04-06T03:02:52;21.25;;;11.65;;
50900;SDS011;36879;51.416;6.678;2023-04-06T03:05:18;22.83;;;11.93;;
50900;SDS011;36879;51.416;6.678;2023-04-06T03:07:44;25.35;;;13.13;;
50900;SDS011;36879;51.416;6.678;2023-04-06T03:10:11;24.17;;;12.15;;
50900;SDS011;36879;51.416;6.678;2023-04-06T03:12:37;23.60;;;13.73;;
50900;SDS011;36879;51.416;6.678;2023-04-06T03:15:03;27.88;;;13.48;;
50900;SDS011;36879;51.416;6.678;2023-04-06T03:17:30;26.15;;;14.02;;
50900;SDS011;36879;51.416;6.678;2023-04-06T03:19:56;28.65;;;15.35;;
50900;SDS011;36879;51.416;6.678;2023-04-06T03:22:22;25.08;;;13.98;;
50900;SDS011;36879;51.416;6.678;2023-04-06T03:24:48;26.48;;;13.43;;
50900;SDS011;36879;51.416;6.678;2023-04-06T03:27:14;28.48;;;14.23;;
50900;SDS011;36879;51.416;6.678;2023-04-06T03:29:39;25.48;;;15.65;;
50900;SDS011;36879;51.416;6.678;2023-04-06T03:32:05;32.05;;;15.88;;
50900;SDS011;36879;51.416;6.678;2023-04-06T03:34:31;32.00;;;15.18;;
50900;SDS011;36879;51.416;6.678;2023-04-06T03:36:57;30.92;;;14.35;;
50900;SDS011;36879;51.416;6.678;2023-04-06T03:39:23;29.33;;;15.90;;
50900;SDS011;36879;51.416;6.678;2023-04-06T03:41:49;24.48;;;14.48;;
50900;SDS011;36879;51.416;6.678;2023-04-06T03:44:15;28.58;;;15.82;;
50900;SDS011;36879;51.416;6.678;2023-04-06T03:46:41;27.17;;;15.15;;
50900;SDS011;36879;51.416;6.678;2023-04-06T03:49:07;26.23;;;14.50;;
50900;SDS011;36879;51.416;6.678;2023-04-06T03:51:33;29.65;;;15.30;;
50900;SDS011;36879;51.416;6.678;2023-04-06T03:53:59;26.33;;;16.08;;
50900;SDS011;36879;51.416;6.678;2023-04-06T03:56:25;28.67;;;16.27;;
50900;SDS011;36879;51.416;6.678;2023-04-06T03:58:51;28.15;;;15.00;;
50900;SDS011;36879;51.416;6.678;2023-04-06T04:01:17;29.77;;;15.63;;
50900;SDS011;36879;51.416;6.678;2023-04-06T04:03:44;27.05;;;15.88;;
50900;SDS011;36879;51.416;6.678;2023-04-06T04:06:10;25.63;;;15.13;;
50900;SDS011;36879;51.416;6.678;2023-04-06T04:08:36;24.30;;;14.73;;
50900;SDS011;36879;51.416;6.678;2023-04-06T04:11:01;28.45;;;15.60;;
50900;SDS011;36879;51.416;6.678;2023-04-06T04:13:27;25.05;;;14.73;;
50900;SDS011;36879;51.416;6.678;2023-04-06T04:15:53;23.67;;;12.65;;
50900;SDS011;36879;51.416;6.678;2023-04-06T04:18:19;25.13;;;12.80;;
50900;SDS011;36879;51.416;6.678;2023-04-06T04:20:46;24.52;;;13.27;;
50900;SDS011;36879;51.416;6.678;2023-04-06T04:23:11;21.02;;;12.38;;
50900;SDS011;36879;51.416;6.678;2023-04-06T04:25:37;24.50;;;13.00;;
50900;SDS011;36879;51.416;6.678;2023-04-06T04:28:03;22.60;;;12.10;;
50900;SDS011;36879;51.416;6.678;2023-04-06T04:30:29;22.38;;;11.98;;
50900;SDS011;36879;51.416;6.678;2023-04-06T04:32:56;26.65;;;11.98;;
50900;SDS011;36879;51.416;6.678;2023-04-06T04:35:21;23.23;;;12.75;;
50900;SDS011;36879;51.416;6.678;2023-04-06T04:37:47;20.95;;;11.73;;
50900;SDS011;36879;51.416;6.678;2023-04-06T04:40:13;21.13;;;12.68;;
50900;SDS011;36879;51.416;6.678;2023-04-06T04:42:40;18.83;;;10.98;;
50900;SDS011;36879;51.416;6.678;2023-04-06T04:45:06;21.80;;;10.73;;
50900;SDS011;36879;51.416;6.678;2023-04-06T04:47:32;18.90;;;11.13;;
50900;SDS011;36879;51.416;6.678;2023-04-06T04:49:58;20.70;;;11.65;;
50900;SDS011;36879;51.416;6.678;2023-04-06T04:52:24;26.80;;;10.77;;
50900;SDS011;36879;51.416;6.678;2023-04-06T04:54:50;20.73;;;11.45;;
50900;SDS011;36879;51.416;6.678;2023-04-06T04:57:16;24.20;;;11.32;;
50900;SDS011;36879;51.416;6.678;2023-04-06T04:59:42;24.35;;;11.48;;
50900;SDS011;36879;51.416;6.678;2023-04-06T05:02:08;17.40;;;10.45;;
50900;SDS011;36879;51.416;6.678;2023-04-06T05:04:35;21.00;;;11.18;;
50900;SDS011;36879;51.416;6.678;2023-04-06T05:07:07;20.13;;;11.60;;
50900;SDS011;36879;51.416;6.678;2023-04-06T05:09:34;18.08;;;10.48;;
50900;SDS011;36879;51.416;6.678;2023-04-06T05:12:00;17.20;;;9.80;;
50900;SDS011;36879;51.416;6.678;2023-04-06T05:14:26;18.40;;;9.65;;
50900;SDS011;36879;51.416;6.678;2023-04-06T05:16:53;19.73;;;9.60;;
50900;SDS011;36879;51.416;6.678;2023-04-06T05:19:19;20.58;;;10.52;;
50900;SDS011;36879;51.416;6.678;2023-04-06T05:21:45;26.73;;;11.65;;
50900;SDS011;36879;51.416;6.678;2023-04-06T05:24:11;18.10;;;10.07;;
50900;SDS011;36879;51.416;6.678;2023-04-06T05:26:37;21.30;;;9.65;;
50900;SDS011;36879;51.416;6.678;2023-04-06T05:29:03;19.50;;;9.93;;
50900;SDS011;36879;51.416;6.678;2023-04-06T05:31:30;17.88;;;9.52;;
50900;SDS011;36879;51.416;6.678;2023-04-06T05:33:56;18.17;;;9.80;;
50900;SDS011;36879;51.416;6.678;2023-04-06T05:36:22;16.98;;;10.00;;
50900;SDS011;36879;51.416;6.678;2023-04-06T05:38:48;23.50;;;9.93;;
50900;SDS011;36879;51.416;6.678;2023-04-06T05:41:15;18.83;;;10.65;;
50900;SDS011;36879;51.416;6.678;2023-04-06T05:43:41;24.55;;;11.65;;
50900;SDS011;36879;51.416;6.678;2023-04-06T05:46:07;25.45;;;9.68;;
50900;SDS011;36879;51.416;6.678;2023-04-06T05:48:33;17.08;;;9.63;;
50900;SDS011;36879;51.416;6.678;2023-04-06T05:50:59;18.20;;;9.63;;
50900;SDS011;36879;51.416;6.678;2023-04-06T05:53:27;17.27;;;10.13;;
50900;SDS011;36879;51.416;6.678;2023-04-06T05:55:54;18.85;;;11.43;;
50900;SDS011;36879;51.416;6.678;2023-04-06T05:58:20;22.27;;;10.13;;
50900;SDS011;36879;51.416;6.678;2023-04-06T06:00:46;22.02;;;10.25;;
50900;SDS011;36879;51.416;6.678;2023-04-06T06:03:12;31.35;;;10.10;;
50900;SDS011;36879;51.416;6.678;2023-04-06T06:05:38;19.17;;;9.52;;
50900;SDS011;36879;51.416;6.678;2023-04-06T06:08:04;19.75;;;9.35;;
50900;SDS011;36879;51.416;6.678;2023-04-06T06:10:30;18.88;;;9.68;;
50900;SDS011;36879;51.416;6.678;2023-04-06T06:12:56;20.83;;;10.98;;
50900;SDS011;36879;51.416;6.678;2023-04-06T06:15:22;22.83;;;10.77;;
50900;SDS011;36879;51.416;6.678;2023-04-06T06:17:48;24.83;;;10.93;;
50900;SDS011;36879;51.416;6.678;2023-04-06T06:20:14;19.17;;;10.73;;
50900;SDS011;36879;51.416;6.678;2023-04-06T06:22:40;24.73;;;11.18;;
50900;SDS011;36879;51.416;6.678;2023-04-06T06:25:06;19.02;;;11.13;;
50900;SDS011;36879;51.416;6.678;2023-04-06T06:27:32;26.75;;;10.20;;
50900;SDS011;36879;51.416;6.678;2023-04-06T06:29:58;25.25;;;10.93;;
50900;SDS011;36879;51.416;6.678;2023-04-06T06:32:24;19.92;;;10.27;;
50900;SDS011;36879;51.416;6.678;2023-04-06T06:34:51;21.33;;;10.45;;
50900;SDS011;36879;51.416;6.678;2023-04-06T06:37:17;18.50;;;9.85;;
50900;SDS011;36879;51.416;6.678;2023-04-06T06:39:43;18.10;;;9.63;;
50900;SDS011;36879;51.416;6.678;2023-04-06T06:42:09;19.02;;;10.18;;
50900;SDS011;36879;51.416;6.678;2023-04-06T06:44:35;23.38;;;9.45;;
50900;SDS011;36879;51.416;6.678;2023-04-06T06:47:01;22.20;;;10.38;;
50900;SDS011;36879;51.416;6.678;2023-04-06T06:49:27;14.25;;;8.57;;
50900;SDS011;36879;51.416;6.678;2023-04-06T06:51:53;16.65;;;8.40;;
50900;SDS011;36879;51.416;6.678;2023-04-06T06:54:19;21.08;;;9.32;;
50900;SDS011;36879;51.416;6.678;2023-04-06T06:56:45;15.20;;;8.05;;
50900;SDS011;36879;51.416;6.678;2023-04-06T06:59:11;15.20;;;7.65;;
50900;SDS011;36879;51.416;6.678;2023-04-06T07:01:37;19.23;;;9.10;;
50900;SDS011;36879;51.416;6.678;2023-04-06T07:04:04;20.85;;;6.95;;
50900;SDS011;36879;51.416;6.678;2023-04-06T07:06:30;11.45;;;6.00;;
50900;SDS011;36879;51.416;6.678;2023-04-06T07:08:56;11.55;;;6.88;;
50900;SDS011;36879;51.416;6.678;2023-04-06T07:11:22;14.60;;;7.53;;
50900;SDS011;36879;51.416;6.678;2023-04-06T07:13:48;18.85;;;8.75;;
50900;SDS011;36879;51.416;6.678;2023-04-06T07:16:14;19.13;;;8.95;;
50900;SDS011;36879;51.416;6.678;2023-04-06T07:18:40;15.73;;;7.07;;
50900;SDS011;36879;51.416;6.678;2023-04-06T07:21:06;14.70;;;8.18;;
50900;SDS011;36879;51.416;6.678;2023-04-06T07:23:32;17.75;;;7.43;;
50900;SDS011;36879;51.416;6.678;2023-04-06T07:25:58;17.75;;;7.57;;
50900;SDS011;36879;51.416;6.678;2023-04-06T07:28:24;17.13;;;7.75;;
50900;SDS011;36879;51.416;6.678;2023-04-06T07:30:50;15.73;;;7.60;;
50900;SDS011;36879;51.416;6.678;2023-04-06T07:33:16;18.60;;;8.05;;
50900;SDS011;36879;51.416;6.678;2023-04-06T07:35:42;13.27;;;7.65;;
50900;SDS011;36879;51.416;6.678;2023-04-06T07:38:08;13.93;;;7.50;;
50900;SDS011;36879;51.416;6.678;2023-04-06T07:40:34;17.02;;;7.22;;
50900;SDS011;36879;51.416;6.678;2023-04-06T07:43:00;15.32;;;8.35;;
50900;SDS011;36879;51.416;6.678;2023-04-06T07:45:27;15.80;;;8.43;;
50900;SDS011;36879;51.416;6.678;2023-04-06T07:47:52;17.60;;;8.15;;
50900;SDS011;36879;51.416;6.678;2023-04-06T07:50:19;12.70;;;6.40;;
50900;SDS011;36879;51.416;6.678;2023-04-06T07:52:45;16.23;;;7.10;;
50900;SDS011;36879;51.416;6.678;2023-04-06T07:55:11;15.35;;;7.38;;
50900;SDS011;36879;51.416;6.678;2023-04-06T07:57:37;20.98;;;8.82;;
50900;SDS011;36879;51.416;6.678;2023-04-06T08:00:03;17.33;;;7.95;;
50900;SDS011;36879;51.416;6.678;2023-04-06T08:02:31;22.00;;;9.77;;
50900;SDS011;36879;51.416;6.678;2023-04-06T08:04:57;19.50;;;9.82;;
50900;SDS011;36879;51.416;6.678;2023-04-06T08:07:23;16.50;;;8.63;;
50900;SDS011;36879;51.416;6.678;2023-04-06T08:09:49;12.73;;;7.60;;
50900;SDS011;36879;51.416;6.678;2023-04-06T08:12:15;13.52;;;7.70;;
50900;SDS011;36879;51.416;6.678;2023-04-06T08:14:41;19.35;;;8.13;;
50900;SDS011;36879;51.416;6.678;2023-04-06T08:17:07;14.77;;;7.57;;
50900;SDS011;36879;51.416;6.678;2023-04-06T08:19:33;17.38;;;8.23;;
50900;SDS011;36879;51.416;6.678;2023-04-06T08:22:00;20.27;;;8.45;;
50900;SDS011;36879;51.416;6.678;2023-04-06T08:24:26;16.48;;;8.25;;
50900;SDS011;36879;51.416;6.678;2023-04-06T08:26:52;19.60;;;7.93;;
50900;SDS011;36879;51.416;6.678;2023-04-06T08:29:18;16.38;;;8.48;;
50900;SDS011;36879;51.416;6.678;2023-04-06T08:31:44;15.70;;;7.63;;
50900;SDS011;36879;51.416;6.678;2023-04-06T08:34:10;19.15;;;8.43;;
50900;SDS011;36879;51.416;6.678;2023-04-06T08:36:36;17.27;;;7.97;;
50900;SDS011;36879;51.416;6.678;2023-04-06T08:39:02;15.50;;;8.05;;
50900;SDS011;36879;51.416;6.678;2023-04-06T08:41:28;19.58;;;7.53;;
50900;SDS011;36879;51.416;6.678;2023-04-06T08:43:58;14.55;;;7.88;;
50900;SDS011;36879;51.416;6.678;2023-04-06T08:46:25;24.15;;;8.68;;
50900;SDS011;36879;51.416;6.678;2023-04-06T08:48:54;13.95;;;7.57;;
50900;SDS011;36879;51.416;6.678;2023-04-06T08:51:21;13.20;;;8.18;;
50900;SDS011;36879;51.416;6.678;2023-04-06T08:53:48;11.63;;;7.60;;
50900;SDS011;36879;51.416;6.678;2023-04-06T08:56:15;14.38;;;7.72;;
50900;SDS011;36879;51.416;6.678;2023-04-06T08:58:41;18.08;;;7.47;;
50900;SDS011;36879;51.416;6.678;2023-04-06T09:01:08;16.08;;;7.43;;
50900;SDS011;36879;51.416;6.678;2023-04-06T09:03:37;13.63;;;7.55;;
50900;SDS011;36879;51.416;6.678;2023-04-06T09:06:04;13.55;;;7.50;;
50900;SDS011;36879;51.416;6.678;2023-04-06T09:08:30;13.00;;;6.80;;
50900;SDS011;36879;51.416;6.678;2023-04-06T09:10:56;14.20;;;7.20;;
50900;SDS011;36879;51.416;6.678;2023-04-06T09:13:22;12.50;;;6.90;;
50900;SDS011;36879;51.416;6.678;2023-04-06T09:15:58;12.05;;;6.72;;
50900;SDS011;36879;51.416;6.678;2023-04-06T09:18:28;16.30;;;7.90;;
50900;SDS011;36879;51.416;6.678;2023-04-06T09:21:01;14.77;;;7.72;;
50900;SDS011;36879;51.416;6.678;2023-04-06T09:23:27;15.05;;;7.60;;
50900;SDS011;36879;51.416;6.678;2023-04-06T09:28:41;13.40;;;7.65;;
50900;SDS011;36879;51.416;6.678;2023-04-06T09:31:07;12.15;;;7.93;;
50900;SDS011;36879;51.416;6.678;2023-04-06T09:33:37;16.30;;;8.38;;
50900;SDS011;36879;51.416;6.678;2023-04-06T09:36:03;14.10;;;7.10;;
50900;SDS011;36879;51.416;6.678;2023-04-06T09:38:29;19.17;;;7.93;;
50900;SDS011;36879;51.416;6.678;2023-04-06T09:40:55;14.27;;;7.82;;
50900;SDS011;36879;51.416;6.678;2023-04-06T09:43:25;11.35;;;7.07;;
50900;SDS011;36879;51.416;6.678;2023-04-06T09:45:52;11.65;;;7.18;;
50900;SDS011;36879;51.416;6.678;2023-04-06T09:48:19;14.23;;;8.15;;
50900;SDS011;36879;51.416;6.678;2023-04-06T09:50:47;14.20;;;7.72;;
50900;SDS011;36879;51.416;6.678;2023-04-06T09:53:13;11.45;;;7.50;;
50900;SDS011;36879;51.416;6.678;2023-04-06T09:55:41;11.32;;;7.38;;
50900;SDS011;36879;51.416;6.678;2023-04-06T09:58:12;13.60;;;7.55;;
50900;SDS011;36879;51.416;6.678;2023-04-06T10:00:51;14.13;;;7.45;;
50900;SDS011;36879;51.416;6.678;2023-04-06T10:03:27;15.20;;;8.48;;
50900;SDS011;36879;51.416;6.678;2023-04-06T10:05:56;16.13;;;8.38;;
50900;SDS011;36879;51.416;6.678;2023-04-06T10:08:24;17.50;;;8.25;;
50900;SDS011;36879;51.416;6.678;2023-04-06T10:10:52;23.58;;;11.20;;
50900;SDS011;36879;51.416;6.678;2023-04-06T10:13:18;14.98;;;7.97;;
50900;SDS011;36879;51.416;6.678;2023-04-06T10:15:45;16.08;;;8.18;;
50900;SDS011;36879;51.416;6.678;2023-04-06T10:18:11;18.48;;;8.55;;
50900;SDS011;36879;51.416;6.678;2023-04-06T10:23:19;17.60;;;9.68;;
50900;SDS011;36879;51.416;6.678;2023-04-06T10:25:52;34.67;;;15.98;;
50900;SDS011;36879;51.416;6.678;2023-04-06T10:28:19;13.88;;;8.93;;
50900;SDS011;36879;51.416;6.678;2023-04-06T10:30:45;16.38;;;8.25;;
50900;SDS011;36879;51.416;6.678;2023-04-06T10:33:15;14.48;;;8.30;;
50900;SDS011;36879;51.416;6.678;2023-04-06T10:35:41;17.52;;;9.02;;
50900;SDS011;36879;51.416;6.678;2023-04-06T10:38:07;15.18;;;8.75;;
50900;SDS011;36879;51.416;6.678;2023-04-06T10:40:37;15.50;;;8.32;;
50900;SDS011;36879;51.416;6.678;2023-04-06T10:43:07;15.25;;;9.02;;
50900;SDS011;36879;51.416;6.678;2023-04-06T10:45:34;18.38;;;8.73;;
50900;SDS011;36879;51.416;6.678;2023-04-06T10:48:00;16.60;;;8.60;;
50900;SDS011;36879;51.416;6.678;2023-04-06T10:50:26;17.55;;;8.90;;
50900;SDS011;36879;51.416;6.678;2023-04-06T10:53:01;14.93;;;8.52;;
50900;SDS011;36879;51.416;6.678;2023-04-06T10:55:27;19.55;;;10.10;;
50900;SDS011;36879;51.416;6.678;2023-04-06T10:57:54;17.35;;;8.60;;
50900;SDS011;36879;51.416;6.678;2023-04-06T11:00:20;17.17;;;9.43;;
50900;SDS011;36879;51.416;6.678;2023-04-06T11:02:46;16.77;;;8.90;;
50900;SDS011;36879;51.416;6.678;2023-04-06T11:05:13;14.27;;;8.70;;
50900;SDS011;36879;51.416;6.678;2023-04-06T11:07:40;16.27;;;8.65;;
50900;SDS011;36879;51.416;6.678;2023-04-06T11:10:09;13.50;;;8.55;;
50900;SDS011;36879;51.416;6.678;2023-04-06T11:12:35;15.98;;;8.60;;
50900;SDS011;36879;51.416;6.678;2023-04-06T11:15:02;13.02;;;8.75;;
50900;SDS011;36879;51.416;6.678;2023-04-06T11:17:33;15.80;;;9.13;;
50900;SDS011;36879;51.416;6.678;2023-04-06T11:19:59;16.35;;;8.02;;
50900;SDS011;36879;51.416;6.678;2023-04-06T11:22:25;17.50;;;9.10;;
50900;SDS011;36879;51.416;6.678;2023-04-06T11:24:52;18.73;;;9.73;;
50900;SDS011;36879;51.416;6.678;2023-04-06T11:27:18;22.10;;;10.05;;
50900;SDS011;36879;51.416;6.678;2023-04-06T11:29:45;18.25;;;9.70;;
50900;SDS011;36879;51.416;6.678;2023-04-06T11:32:11;14.13;;;8.23;;
50900;SDS011;36879;51.416;6.678;2023-04-06T11:34:45;20.30;;;11.25;;
50900;SDS011;36879;51.416;6.678;2023-04-06T11:37:12;20.95;;;9.85;;
50900;SDS011;36879;51.416;6.678;2023-04-06T11:39:39;20.48;;;9.98;;
50900;SDS011;36879;51.416;6.678;2023-04-06T11:42:06;15.05;;;9.23;;
50900;SDS011;36879;51.416;6.678;2023-04-06T11:44:32;17.10;;;8.65;;
50900;SDS011;36879;51.416;6.678;2023-04-06T11:47:00;16.23;;;8.30;;
50900;SDS011;36879;51.416;6.678;2023-04-06T11:49:26;15.57;;;8.63;;
50900;SDS011;36879;51.416;6.678;2023-04-06T11:51:53;22.33;;;10.65;;
50900;SDS011;36879;51.416;6.678;2023-04-06T11:54:29;17.70;;;8.77;;
50900;SDS011;36879;51.416;6.678;2023-04-06T11:56:55;14.75;;;8.18;;
50900;SDS011;36879;51.416;6.678;2023-04-06T11:59:21;18.80;;;10.05;;
50900;SDS011;36879;51.416;6.678;2023-04-06T12:01:48;13.85;;;8.10;;
50900;SDS011;36879;51.416;6.678;2023-04-06T12:04:14;14.55;;;8.68;;
50900;SDS011;36879;51.416;6.678;2023-04-06T12:06:40;17.10;;;8.50;;
50900;SDS011;36879;51.416;6.678;2023-04-06T12:09:06;16.98;;;8.27;;
50900;SDS011;36879;51.416;6.678;2023-04-06T12:11:32;20.27;;;10.60;;
50900;SDS011;36879;51.416;6.678;2023-04-06T12:13:58;15.48;;;8.25;;
50900;SDS011;36879;51.416;6.678;2023-04-06T12:16:26;16.40;;;8.63;;
50900;SDS011;36879;51.416;6.678;2023-04-06T12:18:52;15.05;;;8.63;;
50900;SDS011;36879;51.416;6.678;2023-04-06T12:21:18;18.30;;;8.68;;
50900;SDS011;36879;51.416;6.678;2023-04-06T12:23:44;16.55;;;8.80;;
50900;SDS011;36879;51.416;6.678;2023-04-06T12:26:10;15.27;;;8.30;;
50900;SDS011;36879;51.416;6.678;2023-04-06T12:28:36;12.20;;;8.15;;
50900;SDS011;36879;51.416;6.678;2023-04-06T12:31:02;16.70;;;8.65;;
50900;SDS011;36879;51.416;6.678;2023-04-06T12:33:28;15.60;;;9.13;;
50900;SDS011;36879;51.416;6.678;2023-04-06T12:35:54;11.68;;;7.32;;
50900;SDS011;36879;51.416;6.678;2023-04-06T12:38:21;14.05;;;7.07;;
50900;SDS011;36879;51.416;6.678;2023-04-06T12:40:47;12.25;;;6.40;;
50900;SDS011;36879;51.416;6.678;2023-04-06T12:43:13;9.70;;;6.72;;
50900;SDS011;36879;51.416;6.678;2023-04-06T12:45:39;14.25;;;6.82;;
50900;SDS011;36879;51.416;6.678;2023-04-06T12:48:06;13.00;;;7.00;;
50900;SDS011;36879;51.416;6.678;2023-04-06T12:50:32;10.65;;;5.18;;
50900;SDS011;36879;51.416;6.678;2023-04-06T12:52:58;9.95;;;5.45;;
50900;SDS011;36879;51.416;6.678;2023-04-06T12:55:24;11.10;;;5.60;;
50900;SDS011;36879;51.416;6.678;2023-04-06T12:57:50;11.43;;;5.55;;
50900;SDS011;36879;51.416;6.678;2023-04-06T13:00:16;9.10;;;5.82;;
50900;SDS011;36879;51.416;6.678;2023-04-06T13:02:42;9.48;;;5.40;;
50900;SDS011;36879;51.416;6.678;2023-04-06T13:05:12;9.40;;;4.90;;
50900;SDS011;36879;51.416;6.678;2023-04-06T13:07:38;9.48;;;5.03;;
50900;SDS011;36879;51.416;6.678;2023-04-06T13:10:04;8.35;;;4.47;;
50900;SDS011;36879;51.416;6.678;2023-04-06T13:12:30;7.53;;;4.47;;
50900;SDS011;36879;51.416;6.678;2023-04-06T13:14:56;7.72;;;3.70;;
50900;SDS011;36879;51.416;6.678;2023-04-06T13:17:22;12.27;;;4.75;;
50900;SDS011;36879;51.416;6.678;2023-04-06T13:19:48;8.02;;;4.70;;
50900;SDS011;36879;51.416;6.678;2023-04-06T13:22:14;9.05;;;4.07;;
50900;SDS011;36879;51.416;6.678;2023-04-06T13:24:40;7.03;;;3.97;;
50900;SDS011;36879;51.416;6.678;2023-04-06T13:27:06;8.02;;;4.57;;
50900;SDS011;36879;51.416;6.678;2023-04-06T13:29:32;8.02;;;4.72;;
50900;SDS011;36879;51.416;6.678;2023-04-06T13:31:59;8.13;;;5.43;;
50900;SDS011;36879;51.416;6.678;2023-04-06T13:34:25;8.52;;;4.72;;
50900;SDS011;36879;51.416;6.678;2023-04-06T13:36:51;10.80;;;5.13;;
50900;SDS011;36879;51.416;6.678;2023-04-06T13:39:17;11.52;;;6.05;;
50900;SDS011;36879;51.416;6.678;2023-04-06T13:41:43;8.13;;;4.95;;
50900;SDS011;36879;51.416;6.678;2023-04-06T13:44:09;9.65;;;5.25;;
50900;SDS011;36879;51.416;6.678;2023-04-06T13:46:35;11.70;;;5.72;;
50900;SDS011;36879;51.416;6.678;2023-04-06T13:49:02;11.68;;;6.35;;
50900;SDS011;36879;51.416;6.678;2023-04-06T13:51:28;13.82;;;6.20;;
50900;SDS011;36879;51.416;6.678;2023-04-06T13:53:54;11.88;;;5.45;;
50900;SDS011;36879;51.416;6.678;2023-04-06T13:56:20;11.40;;;5.45;;
50900;SDS011;36879;51.416;6.678;2023-04-06T13:58:46;10.73;;;5.53;;
50900;SDS011;36879;51.416;6.678;2023-04-06T14:01:12;15.90;;;6.88;;
50900;SDS011;36879;51.416;6.678;2023-04-06T14:03:38;10.00;;;5.50;;
50900;SDS011;36879;51.416;6.678;2023-04-06T14:06:11;10.77;;;5.95;;
50900;SDS011;36879;51.416;6.678;2023-04-06T14:08:37;12.02;;;6.38;;
50900;SDS011;36879;51.416;6.678;2023-04-06T14:11:03;12.70;;;5.32;;
50900;SDS011;36879;51.416;6.678;2023-04-06T14:13:29;9.45;;;5.75;;
50900;SDS011;36879;51.416;6.678;2023-04-06T14:15:56;11.57;;;6.93;;
50900;SDS011;36879;51.416;6.678;2023-04-06T14:18:22;12.82;;;6.32;;
50900;SDS011;36879;51.416;6.678;2023-04-06T14:20:54;12.18;;;6.70;;
50900;SDS011;36879;51.416;6.678;2023-04-06T14:23:21;12.02;;;6.40;;
50900;SDS011;36879;51.416;6.678;2023-04-06T14:25:47;14.60;;;7.70;;
50900;SDS011;36879;51.416;6.678;2023-04-06T14:28:13;10.23;;;6.63;;